Arroyo Hondo, New Mexico
Current Conditions -  °F | °C
As of 1:15 AM on Monday 24 Nov 2014 (Local Time) from KSKX Reporting Station
Clear Clear  
Wind Chill: -4°   Ceiling: Unl
Heat Index:   Visibility: 10mi
Dew Point: -6°   Wind: 5mph
Humidity: 61%   Direction: 260°W
Pressure: 30.03"   Gusts: NA
Location:  36.53°N, 105.67°W
Report Text: KSKX 240815Z AUTO 26004KT 10SM CLR M15/M21 A3003 RMK AO1
Loading
Personal Weather Stations






























Interactive Weather Map New forecast layout! Learn more

10-Day Weather Forecast

Advertisements
Track Severe Weather on mobile